AAL953 KJFK-SAEZ
Flight info
| Callsign | AAL953 |
|---|---|
| Flight time | N/A |
| Altitude | 32000 |
| Route | DCT WAVEY DCT EMJAY Q167 ZJAAY DCT ORF DCT CLAPY DCT SKARP Y327 IDOLS DCT CARPX AR3 CASPR Y307 NUCAR AR3 BARTS DCT ZQA/N0491F330 B503 ENAMO UM218 LOKOV/N0492F350 UM218 EJA UP525 RCO UL417 VALUS/N0481F370 UL417 TOPOG UL404 ISOPO UT672 MULTA/N0401F230 W24 SNT SNT7U |
| Aircraft | B77W/H-SDE1E2E3FGHIJ2J3J4J5M1RWXY/LB1D1 |
Departure
| Time | N/A |
|---|---|
| Airport | John F. Kennedy International Airport (KJFK) |
Arrival
| Time | 2026-05-06 07:24 |
|---|---|
| Airport | Ezeiza International Airport - Ministro Pistarini (SAEZ) |
| Time | Latitude | Longitude | Altitude | Speed | Heading |
|---|---|---|---|---|---|
| 2026-05-06 06:59 | -32.92249 | -60.76910 | 36890 ft | 527 kts | 162° |
| 2026-05-06 06:59 | -32.98553 | -60.72612 | 36883 ft | 524 kts | 160° |
| 2026-05-06 07:00 | -33.04924 | -60.68205 | 36886 ft | 523 kts | 160° |
| 2026-05-06 07:00 | -33.11206 | -60.63858 | 36892 ft | 525 kts | 160° |
| 2026-05-06 07:01 | -33.17582 | -60.59435 | 36884 ft | 522 kts | 160° |
| 2026-05-06 07:01 | -33.23858 | -60.55082 | 36897 ft | 526 kts | 160° |
| 2026-05-06 07:02 | -33.30202 | -60.50672 | 36910 ft | 526 kts | 160° |
| 2026-05-06 07:02 | -33.36490 | -60.46291 | 36898 ft | 522 kts | 160° |
| 2026-05-06 07:03 | -33.42142 | -60.42350 | 36906 ft | 523 kts | 160° |
| 2026-05-06 07:03 | -33.48405 | -60.37974 | 36906 ft | 522 kts | 160° |
| 2026-05-06 07:04 | -33.54653 | -60.33598 | 36428 ft | 514 kts | 159° |
| 2026-05-06 07:04 | -33.57733 | -60.31444 | 35398 ft | 520 kts | 158° |
| 2026-05-06 07:04 | -33.60881 | -60.29242 | 34418 ft | 525 kts | 158° |
| 2026-05-06 07:04 | -33.64024 | -60.27037 | 33540 ft | 527 kts | 157° |
| 2026-05-06 07:05 | -33.67189 | -60.24815 | 32671 ft | 528 kts | 157° |
| 2026-05-06 07:05 | -33.70374 | -60.22577 | 31721 ft | 531 kts | 156° |
| 2026-05-06 07:05 | -33.73567 | -60.20331 | 30763 ft | 533 kts | 156° |
| 2026-05-06 07:05 | -33.76717 | -60.18111 | 30123 ft | 528 kts | 155° |
| 2026-05-06 07:06 | -33.79851 | -60.15852 | 29619 ft | 522 kts | 152° |
| 2026-05-06 07:06 | -33.82742 | -60.13197 | 29048 ft | 523 kts | 143° |
| 2026-05-06 07:06 | -33.85287 | -60.10074 | 28447 ft | 524 kts | 134° |
| 2026-05-06 07:06 | -33.87463 | -60.06589 | 27831 ft | 523 kts | 128° |
| 2026-05-06 07:07 | -33.89510 | -60.02998 | 27211 ft | 518 kts | 128° |
| 2026-05-06 07:07 | -33.91496 | -59.99477 | 26601 ft | 514 kts | 127° |
| 2026-05-06 07:07 | -33.93495 | -59.95919 | 25973 ft | 509 kts | 127° |
| 2026-05-06 07:07 | -33.95468 | -59.92399 | 25353 ft | 505 kts | 127° |
| 2026-05-06 07:08 | -33.97408 | -59.88930 | 24732 ft | 500 kts | 127° |
| 2026-05-06 07:08 | -33.99350 | -59.85451 | 24105 ft | 496 kts | 127° |
| 2026-05-06 07:08 | -34.01261 | -59.82022 | 23485 ft | 492 kts | 126° |
| 2026-05-06 07:08 | -34.03135 | -59.78655 | 22870 ft | 488 kts | 126° |
| 2026-05-06 07:09 | -34.05014 | -59.75275 | 22239 ft | 484 kts | 126° |
| 2026-05-06 07:09 | -34.06887 | -59.71899 | 21610 ft | 481 kts | 126° |
| 2026-05-06 07:09 | -34.08727 | -59.68580 | 20996 ft | 477 kts | 126° |
| 2026-05-06 07:09 | -34.10566 | -59.65262 | 20370 ft | 473 kts | 126° |
| 2026-05-06 07:10 | -34.12381 | -59.61979 | 19743 ft | 469 kts | 126° |
| 2026-05-06 07:10 | -34.14191 | -59.58705 | 19120 ft | 465 kts | 126° |
| 2026-05-06 07:10 | -34.15983 | -59.55459 | 18490 ft | 462 kts | 126° |
| 2026-05-06 07:10 | -34.17755 | -59.52246 | 17864 ft | 458 kts | 126° |
| 2026-05-06 07:11 | -34.19508 | -59.49066 | 17239 ft | 454 kts | 125° |
| 2026-05-06 07:11 | -34.21260 | -59.45958 | 16616 ft | 450 kts | 129° |
| 2026-05-06 07:11 | -34.23326 | -59.43160 | 15996 ft | 444 kts | 139° |
| 2026-05-06 07:11 | -34.25641 | -59.40730 | 15357 ft | 439 kts | 142° |
| 2026-05-06 07:12 | -34.27988 | -59.38365 | 14730 ft | 435 kts | 142° |
| 2026-05-06 07:12 | -34.30291 | -59.36049 | 14137 ft | 431 kts | 142° |
| 2026-05-06 07:12 | -34.32601 | -59.33725 | 13527 ft | 427 kts | 141° |
| 2026-05-06 07:12 | -34.34865 | -59.31446 | 12933 ft | 423 kts | 141° |
| 2026-05-06 07:13 | -34.37103 | -59.29193 | 12337 ft | 420 kts | 140° |
| 2026-05-06 07:13 | -34.39339 | -59.26941 | 11734 ft | 416 kts | 140° |
| 2026-05-06 07:13 | -34.41549 | -59.24713 | 11134 ft | 413 kts | 140° |
| 2026-05-06 07:13 | -34.43728 | -59.22515 | 10663 ft | 405 kts | 139° |
| 2026-05-06 07:14 | -34.45852 | -59.20370 | 10566 ft | 388 kts | 139° |
| 2026-05-06 07:14 | -34.47897 | -59.18306 | 10462 ft | 372 kts | 139° |
| 2026-05-06 07:14 | -34.49846 | -59.16336 | 10323 ft | 359 kts | 139° |
| 2026-05-06 07:14 | -34.51741 | -59.14419 | 10171 ft | 348 kts | 139° |
| 2026-05-06 07:15 | -34.53561 | -59.12577 | 10021 ft | 337 kts | 139° |
| 2026-05-06 07:15 | -34.55354 | -59.10761 | 9716 ft | 333 kts | 139° |
| 2026-05-06 07:15 | -34.57116 | -59.08976 | 9496 ft | 323 kts | 139° |
| 2026-05-06 07:15 | -34.58795 | -59.07275 | 9482 ft | 306 kts | 139° |
| 2026-05-06 07:16 | -34.60404 | -59.05643 | 9258 ft | 299 kts | 138° |
| 2026-05-06 07:16 | -34.62002 | -59.04021 | 8866 ft | 299 kts | 138° |
| 2026-05-06 07:16 | -34.63570 | -59.02428 | 8494 ft | 296 kts | 138° |
| 2026-05-06 07:16 | -34.65151 | -59.00822 | 8105 ft | 293 kts | 138° |
| 2026-05-06 07:17 | -34.66703 | -58.99245 | 7695 ft | 291 kts | 138° |
| 2026-05-06 07:17 | -34.68249 | -58.97672 | 7271 ft | 288 kts | 138° |
| 2026-05-06 07:17 | -34.69781 | -58.96114 | 6798 ft | 286 kts | 139° |
| 2026-05-06 07:17 | -34.71298 | -58.94570 | 6367 ft | 283 kts | 139° |
| 2026-05-06 07:18 | -34.72792 | -58.93048 | 5933 ft | 281 kts | 138° |
| 2026-05-06 07:18 | -34.74286 | -58.91526 | 5422 ft | 280 kts | 138° |
| 2026-05-06 07:18 | -34.75594 | -58.89818 | 4972 ft | 270 kts | 117° |
| 2026-05-06 07:18 | -34.76285 | -58.87780 | 4715 ft | 256 kts | 97° |
| 2026-05-06 07:19 | -34.76562 | -58.85659 | 4484 ft | 252 kts | 95° |
| 2026-05-06 07:19 | -34.76836 | -58.83578 | 4251 ft | 248 kts | 96° |
| 2026-05-06 07:19 | -34.77137 | -58.81548 | 4063 ft | 242 kts | 97° |
| 2026-05-06 07:19 | -34.77459 | -58.79568 | 3871 ft | 236 kts | 98° |
| 2026-05-06 07:20 | -34.77806 | -58.77613 | 3620 ft | 233 kts | 99° |
| 2026-05-06 07:20 | -34.78164 | -58.75708 | 3329 ft | 224 kts | 99° |
| 2026-05-06 07:20 | -34.78503 | -58.73949 | 3063 ft | 208 kts | 99° |
| 2026-05-06 07:20 | -34.78820 | -58.72285 | 2819 ft | 195 kts | 99° |
| 2026-05-06 07:21 | -34.79107 | -58.70738 | 2576 ft | 181 kts | 98° |
| 2026-05-06 07:21 | -34.79371 | -58.69304 | 2357 ft | 169 kts | 98° |
| 2026-05-06 07:21 | -34.79621 | -58.67930 | 2143 ft | 164 kts | 98° |
| 2026-05-06 07:21 | -34.79868 | -58.66567 | 1930 ft | 162 kts | 98° |
| 2026-05-06 07:22 | -34.80105 | -58.65269 | 1712 ft | 153 kts | 98° |
| 2026-05-06 07:22 | -34.80331 | -58.64019 | 1518 ft | 149 kts | 98° |
| 2026-05-06 07:22 | -34.80534 | -58.62808 | 1199 ft | 141 kts | 98° |
| 2026-05-06 07:22 | -34.80764 | -58.61668 | 1029 ft | 139 kts | 98° |
| 2026-05-06 07:23 | -34.80975 | -58.60518 | 955 ft | 140 kts | 101° |
| 2026-05-06 07:23 | -34.81173 | -58.59343 | 804 ft | 142 kts | 99° |
| 2026-05-06 07:23 | -34.81392 | -58.58177 | 578 ft | 140 kts | 101° |
| 2026-05-06 07:23 | -34.81603 | -58.57017 | 371 ft | 141 kts | 102° |
| 2026-05-06 07:24 | -34.81813 | -58.55855 | 185 ft | 142 kts | 101° |
| 2026-05-06 07:24 | -34.82023 | -58.54693 | 77 ft | 133 kts | 102° |
| 2026-05-06 07:24 | -34.82195 | -58.53727 | 80 ft | 94 kts | 103° |
| 2026-05-06 07:24 | -34.82303 | -58.53131 | 79 ft | 48 kts | 102° |
| 2026-05-06 07:25 | -34.82331 | -58.52909 | 78 ft | 10 kts | 56° |
| 2026-05-06 07:25 | -34.82265 | -58.52897 | 78 ft | 10 kts | 341° |
| 2026-05-06 07:25 | -34.82194 | -58.52921 | 78 ft | 11 kts | 344° |
| 2026-05-06 07:25 | -34.82095 | -58.52954 | 78 ft | 17 kts | 345° |
| 2026-05-06 07:26 | -34.81962 | -58.53000 | 78 ft | 22 kts | 343° |
| 2026-05-06 07:26 | -34.81815 | -58.53052 | 78 ft | 21 kts | 344° |
| 2026-05-06 07:26 | -34.81678 | -58.53099 | 79 ft | 19 kts | 344° |
| 2026-05-06 07:26 | -34.81561 | -58.53158 | 79 ft | 17 kts | 319° |
| 2026-05-06 07:27 | -34.81499 | -58.53275 | 80 ft | 15 kts | 300° |
| 2026-05-06 07:27 | -34.81450 | -58.53385 | 81 ft | 14 kts | 298° |
| 2026-05-06 07:27 | -34.81404 | -58.53484 | 83 ft | 12 kts | 300° |
| 2026-05-06 07:27 | -34.81384 | -58.53571 | 83 ft | 8 kts | 243° |
| 2026-05-06 07:28 | -34.81403 | -58.53633 | 84 ft | 7 kts | 293° |
| 2026-05-06 07:28 | -34.81374 | -58.53678 | 84 ft | 5 kts | 309° |
| 2026-05-06 07:28 | -34.81359 | -58.53701 | 85 ft | 0 kts | 308° |